Pagina principală
METAR-TAF:

METAR-TAF

Aeroporturi :

Tinian, Insulele Mariane, Statele Unite ale Americii

Latitudine: 14-59N, longitudine: 145-37E, elevație: 82 m

Observații meteo curente

Raportul a fost făcut în urmă cu 2 ore și 52 de minute, la 08:50 UTC
Vânt calm
Temperatură 28°C
Umiditate 84%
Presiune
Vizibilitate: 11.3 km
Nori puțini la o înălțime de 2000 picior
Nori puțini la o înălțime de 12000 picior

METAR: PGWT 280850Z 00000KT 7SM FEW020 FEW120 28/25 RMK LAST

Ora: 21:42 (11:42 UTC)

Prognoză

Raportul a fost făcut în urmă cu 6 ore și 20 de minute, la 05:22 UTC
Prognoză valabilă de la 28 ora 06 UTC la 29 ora 06 UTC
Vânt 11 kt de la Est
Vizibilitate: 10 km
Nori împrăștiați la o înălțime de 1800 picior
Nori împrăștiați la o înălțime de 5000 picior
averse în apropiere

TAF: PGWT 280522Z 2806/2906 09011KT P6SM VCSH SCT018 SCT050

Observații și prognoze meteo pentru peste 4.000 de aeroporturi (rapoarte METAR și TAF).

Stațiile disponibile sunt reprezentate pe hartă prin puncte galbene și roșii.

Țineți indicatorul mouse-ului pe punctul dorit pentru a vedea denumirea stației.

Apoi, faceți clic pentru a vedea observațiile și prognozele meteorologice.

Pentru a schimba harta: Pentru mărire, faceți clic pe butoanele verzi cu cruce neagră; pentru micșorare, pe butonul verde cu o liniuță; pentru hărți învecinate, pe săgețile verzi.


METAR-TAF: